createdAt,value
2022-11-01T00:02:18.548Z,98017.06
2022-11-01T00:04:47.004Z,98014.38
2022-11-01T00:07:15.680Z,98012.72
2022-11-01T00:09:45.718Z,97999.88
2022-11-01T00:12:14.004Z,98002.31
2022-11-01T00:14:42.601Z,98002.28
2022-11-01T00:17:11.907Z,98001.31
2022-11-01T00:19:40.687Z,97989.97
2022-11-01T00:22:09.728Z,97996.75
2022-11-01T00:24:38.440Z,97990.75
2022-11-01T00:27:09.510Z,97999.41
2022-11-01T00:29:38.614Z,97985.88
2022-11-01T00:32:07.236Z,97996.94
2022-11-01T00:34:37.077Z,98001.19
2022-11-01T00:37:05.660Z,98010.78
2022-11-01T00:39:34.557Z,98010.72
2022-11-01T00:42:03.298Z,98008.19
2022-11-01T00:44:34.657Z,98021.94
2022-11-01T00:47:03.489Z,98013.53
2022-11-01T00:49:33.007Z,98000.81
2022-11-01T00:52:01.547Z,98016.13
2022-11-01T00:54:30.591Z,98010.28
2022-11-01T00:57:00.910Z,98015.22
2022-11-01T00:59:29.799Z,98014.47
2022-11-01T01:02:01.719Z,98023.94
2022-11-01T01:04:30.923Z,98023.13
2022-11-01T01:06:59.764Z,98007.09
2022-11-01T01:09:28.563Z,98009.66
2022-11-01T01:12:00.792Z,98023.13
2022-11-01T01:14:32.437Z,98011.94
2022-11-01T01:17:03.180Z,98025.75
2022-11-01T01:19:31.924Z,98024.91
2022-11-01T01:22:01.238Z,98031.03
2022-11-01T01:24:29.851Z,98034.50
2022-11-01T01:26:58.412Z,98038.81
2022-11-01T01:29:26.924Z,98041.44
2022-11-01T01:31:55.682Z,98030.31
2022-11-01T01:34:25.901Z,98037.13
2022-11-01T01:36:54.396Z,98041.47
2022-11-01T01:39:22.926Z,98041.50
2022-11-01T01:42:00.365Z,98032.88
2022-11-01T01:45:16.639Z,98026.72
2022-11-01T01:47:48.849Z,98027.63
2022-11-01T01:50:23.896Z,98029.63
2022-11-01T01:52:56.670Z,98030.72
2022-11-01T01:55:30.490Z,98026.59
2022-11-01T01:57:59.702Z,98012.97
2022-11-01T02:00:28.750Z,98023.97
2022-11-01T02:02:58.311Z,98016.25
2022-11-01T02:05:35.738Z,98007.72
2022-11-01T02:08:06.419Z,97991.00
2022-11-01T02:10:36.072Z,98026.00
2022-11-01T02:13:04.880Z,98010.47
2022-11-01T02:15:42.589Z,98008.50
2022-11-01T02:18:22.339Z,98001.72
2022-11-01T02:21:35.441Z,97994.06
2022-11-01T02:24:24.886Z,98005.81
2022-11-01T02:27:12.139Z,98002.28
2022-11-01T02:30:08.375Z,98014.16
2022-11-01T02:32:49.393Z,98011.56
2022-11-01T02:35:24.985Z,97999.56
2022-11-01T02:37:57.500Z,98013.94
2022-11-01T02:40:32.712Z,98012.38
2022-11-01T02:43:06.919Z,98025.31
2022-11-01T02:45:40.932Z,98017.75
2022-11-01T02:48:10.480Z,98027.06
2022-11-01T02:50:43.791Z,98033.06
2022-11-01T02:53:13.199Z,98027.94
2022-11-01T02:55:41.817Z,98021.88
2022-11-01T02:58:17.941Z,98023.53
2022-11-01T03:00:46.654Z,98022.75
2022-11-01T03:03:21.874Z,98024.41
2022-11-01T03:06:00.216Z,98025.25
2022-11-01T03:08:33.579Z,98022.75
2022-11-01T03:11:08.318Z,98019.34
2022-11-01T03:13:57.881Z,98021.94
2022-11-01T03:16:32.504Z,98015.06
2022-11-01T03:19:19.149Z,98011.75
2022-11-01T03:21:54.288Z,98026.28
2022-11-01T03:24:28.088Z,98031.50
2022-11-01T03:27:05.799Z,98021.41
2022-11-01T03:29:38.776Z,98034.97
2022-11-01T03:32:09.482Z,98029.81
2022-11-01T03:34:40.531Z,98031.41
2022-11-01T03:37:12.695Z,98031.28
2022-11-01T03:39:44.590Z,98017.81
2022-11-01T03:42:17.335Z,98027.22
2022-11-01T03:44:48.945Z,98021.16
2022-11-01T03:47:18.525Z,98026.22
2022-11-01T03:49:48.428Z,98022.88
2022-11-01T03:52:17.310Z,98028.06
2022-11-01T03:54:46.000Z,98024.03
2022-11-01T03:57:14.586Z,98031.75
2022-11-01T03:59:43.006Z,98039.25
2022-11-01T04:02:11.895Z,98049.47
2022-11-01T04:04:40.428Z,98040.13
2022-11-01T04:07:10.370Z,98045.28
2022-11-01T04:09:39.006Z,98038.59
2022-11-01T04:12:07.976Z,98036.09
2022-11-01T04:14:54.257Z,98051.44
2022-11-01T04:17:39.924Z,98053.09
2022-11-01T04:20:27.108Z,98066.72
2022-11-01T04:22:57.598Z,98056.47
2022-11-01T04:25:26.261Z,98067.53
2022-11-01T04:27:56.674Z,98065.84
2022-11-01T04:30:25.246Z,98054.84
2022-11-01T04:32:53.658Z,98057.09
2022-11-01T04:35:22.460Z,98073.28
2022-11-01T04:38:00.506Z,98064.78
2022-11-01T04:40:29.270Z,98056.19
2022-11-01T04:42:57.752Z,98050.41
2022-11-01T04:45:26.351Z,98065.00
2022-11-01T04:48:03.414Z,98073.44
2022-11-01T04:50:32.682Z,98064.97
2022-11-01T04:53:03.908Z,98071.69
2022-11-01T04:55:32.518Z,98079.28
2022-11-01T04:58:01.241Z,98069.03
2022-11-01T05:00:31.896Z,98078.22
2022-11-01T05:03:04.958Z,98084.13
2022-11-01T05:05:33.824Z,98089.00
2022-11-01T05:08:05.284Z,98087.22
2022-11-01T05:10:34.106Z,98091.63
2022-11-01T05:13:03.350Z,98095.81
2022-11-01T05:15:32.179Z,98104.28
2022-11-01T05:18:02.820Z,98104.22
2022-11-01T05:20:32.120Z,98083.94
2022-11-01T05:23:01.201Z,98099.84
2022-11-01T05:25:34.021Z,98110.00
2022-11-01T05:28:08.094Z,98118.56
2022-11-01T05:30:37.359Z,98110.00
2022-11-01T05:33:07.999Z,98116.03
2022-11-01T05:35:37.963Z,98116.88
2022-11-01T05:38:08.341Z,98128.84
2022-11-01T05:40:38.258Z,98127.16
2022-11-01T05:43:07.359Z,98123.84
2022-11-01T05:45:35.782Z,98139.09
2022-11-01T05:48:05.101Z,98144.25
2022-11-01T05:50:33.652Z,98140.78
2022-11-01T05:53:08.951Z,98141.59
2022-11-01T05:55:39.217Z,98133.84
2022-11-01T05:58:07.687Z,98137.19
2022-11-01T06:00:36.996Z,98143.97
2022-11-01T06:03:06.461Z,98146.56
2022-11-01T06:05:35.814Z,98155.16
2022-11-01T06:08:04.593Z,98156.69
2022-11-01T06:10:33.299Z,98162.59
2022-11-01T06:13:04.472Z,98167.69
2022-11-01T06:15:35.767Z,98165.94
2022-11-01T06:18:07.775Z,98177.91
2022-11-01T06:20:37.478Z,98169.56
2022-11-01T06:23:11.479Z,98190.69
2022-11-01T06:25:41.515Z,98184.59
2022-11-01T06:28:11.693Z,98188.13
2022-11-01T06:30:40.383Z,98192.25
2022-11-01T06:33:09.735Z,98190.31
2022-11-01T06:35:39.295Z,98192.53
2022-11-01T06:38:09.518Z,98183.97
2022-11-01T06:40:38.656Z,98174.47
2022-11-01T06:43:07.605Z,98177.78
2022-11-01T06:45:38.040Z,98176.03
2022-11-01T06:48:07.117Z,98191.41
2022-11-01T06:50:35.382Z,98192.22
2022-11-01T06:53:05.342Z,98204.19
2022-11-01T06:55:33.780Z,98204.91
2022-11-01T06:58:03.999Z,98210.75
2022-11-01T07:00:33.309Z,98219.13
2022-11-01T07:03:05.499Z,98222.34
2022-11-01T07:05:37.280Z,98226.56
2022-11-01T07:08:08.229Z,98232.41
2022-11-01T07:10:38.612Z,98223.66
2022-11-01T07:13:09.046Z,98223.44
2022-11-01T07:15:37.524Z,98225.03
2022-11-01T07:18:09.036Z,98230.19
2022-11-01T07:20:42.853Z,98229.28
2022-11-01T07:23:14.849Z,98228.44
2022-11-01T07:25:44.926Z,98238.66
2022-11-01T07:28:13.352Z,98234.34
2022-11-01T07:30:42.825Z,98233.34
2022-11-01T07:33:12.686Z,98240.63
2022-11-01T07:35:41.005Z,98249.97
2022-11-01T07:38:13.126Z,98247.69
2022-11-01T07:40:41.870Z,98247.31
2022-11-01T07:43:10.677Z,98248.25
2022-11-01T07:45:38.982Z,98249.69
2022-11-01T07:48:10.613Z,98252.81
2022-11-01T07:50:43.099Z,98255.50
2022-11-01T07:53:13.780Z,98269.91
2022-11-01T07:55:44.244Z,98273.16
2022-11-01T07:58:14.140Z,98282.34
2022-11-01T08:00:44.260Z,98279.72
2022-11-01T08:03:15.699Z,98282.13
2022-11-01T08:05:46.452Z,98284.91
2022-11-01T08:08:15.991Z,98291.56
2022-11-01T08:10:44.883Z,98286.31
2022-11-01T08:13:18.425Z,98281.91
2022-11-01T08:15:47.392Z,98285.06
2022-11-01T08:18:16.066Z,98277.13
2022-11-01T08:20:46.909Z,98277.84
2022-11-01T08:23:16.297Z,98281.16
2022-11-01T08:25:45.269Z,98282.06
2022-11-01T08:28:15.634Z,98299.25
2022-11-01T08:30:46.052Z,98302.25
2022-11-01T08:33:14.437Z,98306.50
2022-11-01T08:35:48.849Z,98305.59
2022-11-01T08:38:22.205Z,98309.38
2022-11-01T08:40:50.860Z,98307.38
2022-11-01T08:43:19.341Z,98307.69
2022-11-01T08:45:48.275Z,98315.88
2022-11-01T08:48:16.739Z,98304.81
2022-11-01T08:50:45.116Z,98295.81
2022-11-01T08:53:16.055Z,98308.53
2022-11-01T08:55:46.073Z,98298.50
2022-11-01T08:58:14.661Z,98288.81
2022-11-01T09:00:43.160Z,98307.50
2022-11-01T09:03:12.734Z,98305.16
2022-11-01T09:05:41.243Z,98306.00
2022-11-01T09:08:10.755Z,98293.22
2022-11-01T09:10:39.151Z,98293.50
2022-11-01T09:13:08.963Z,98309.75
2022-11-01T09:15:37.724Z,98307.94
2022-11-01T09:18:07.745Z,98299.94
2022-11-01T09:20:36.234Z,98302.03
2022-11-01T09:23:05.450Z,98307.69
2022-11-01T09:25:34.086Z,98299.56
2022-11-01T09:28:02.412Z,98301.25
2022-11-01T09:30:32.412Z,98308.91
2022-11-01T09:33:01.230Z,98303.13
2022-11-01T09:35:30.283Z,98305.47
2022-11-01T09:38:02.538Z,98306.63
2022-11-01T09:40:36.098Z,98303.34
2022-11-01T09:43:05.588Z,98307.88
2022-11-01T09:45:36.243Z,98309.91
2022-11-01T09:48:07.991Z,98306.28
2022-11-01T09:50:39.981Z,98322.44
2022-11-01T09:53:16.478Z,98326.63
2022-11-01T09:55:49.785Z,98322.84
2022-11-01T09:58:30.406Z,98326.59
2022-11-01T10:01:12.409Z,98323.69
2022-11-01T10:03:53.871Z,98344.84
2022-11-01T10:06:26.167Z,98346.38
2022-11-01T10:09:04.312Z,98350.38
2022-11-01T10:11:46.593Z,98343.22
2022-11-01T10:14:29.461Z,98349.59
2022-11-01T10:17:10.187Z,98347.81
2022-11-01T10:19:40.346Z,98353.22
2022-11-01T10:22:17.584Z,98354.69
2022-11-01T10:24:51.746Z,98351.91
2022-11-01T10:27:28.532Z,98346.38
2022-11-01T10:30:04.270Z,98354.50
2022-11-01T10:32:40.573Z,98346.84
2022-11-01T10:35:18.088Z,98342.03
2022-11-01T10:38:11.127Z,98340.91
2022-11-01T10:40:49.230Z,98333.53
2022-11-01T10:43:22.954Z,98340.41
2022-11-01T10:45:55.626Z,98330.94
2022-11-01T10:48:32.505Z,98338.94
2022-11-01T10:51:05.297Z,98339.44
2022-11-01T10:53:37.447Z,98337.00
2022-11-01T10:56:10.446Z,98339.59
2022-11-01T10:58:46.914Z,98336.72
2022-11-01T11:01:20.512Z,98337.56
2022-11-01T11:03:52.492Z,98329.75
2022-11-01T11:06:21.057Z,98334.75
2022-11-01T11:08:52.872Z,98340.25
2022-11-01T11:11:35.606Z,98332.47
2022-11-01T11:14:09.825Z,98332.03
2022-11-01T11:16:44.904Z,98329.63
2022-11-01T11:19:24.195Z,98329.41
2022-11-01T11:21:55.678Z,98324.13
2022-11-01T11:24:28.570Z,98325.81
2022-11-01T11:26:59.099Z,98317.50
2022-11-01T11:29:41.091Z,98311.75
2022-11-01T11:32:18.474Z,98319.06
2022-11-01T11:34:55.781Z,98323.75
2022-11-01T11:37:28.010Z,98313.34
2022-11-01T11:40:20.255Z,98317.16
2022-11-01T11:42:51.860Z,98313.34
2022-11-01T11:45:27.566Z,98310.91
2022-11-01T11:47:56.579Z,98316.34
2022-11-01T11:50:36.385Z,98295.63
2022-11-01T11:53:08.766Z,98305.56
2022-11-01T11:55:44.584Z,98308.59
2022-11-01T11:58:25.247Z,98290.88
2022-11-01T12:00:59.782Z,98306.25
2022-11-01T12:03:29.137Z,98303.06
2022-11-01T12:06:08.918Z,98297.19
2022-11-01T12:08:46.890Z,98296.03
2022-11-01T12:11:16.413Z,98298.03
2022-11-01T12:13:47.106Z,98284.66
2022-11-01T12:16:22.561Z,98305.31
2022-11-01T12:18:56.183Z,98311.19
2022-11-01T12:21:31.764Z,98324.63
2022-11-01T12:24:05.626Z,98303.03
2022-11-01T12:26:38.389Z,98315.72
2022-11-01T12:29:21.919Z,98317.50
2022-11-01T12:31:53.426Z,98325.13
2022-11-01T12:34:27.235Z,98313.19
2022-11-01T12:37:00.902Z,98326.66
2022-11-01T12:39:44.254Z,98320.59
2022-11-01T12:42:26.315Z,98311.97
2022-11-01T12:45:00.110Z,98318.69
2022-11-01T12:47:36.798Z,98311.97
2022-11-01T12:50:11.545Z,98308.38
2022-11-01T12:52:46.285Z,98315.09
2022-11-01T12:55:23.953Z,98307.84
2022-11-01T12:57:52.492Z,98327.66
2022-11-01T13:00:22.080Z,98325.75
2022-11-01T13:03:05.347Z,98320.06
2022-11-01T13:05:44.923Z,98332.06
2022-11-01T13:08:25.499Z,98331.28
2022-11-01T13:10:57.035Z,98329.47
2022-11-01T13:13:31.870Z,98330.38
2022-11-01T13:16:11.627Z,98329.22
2022-11-01T13:18:48.585Z,98325.88
2022-11-01T13:21:30.398Z,98333.88
2022-11-01T13:24:08.996Z,98334.13
2022-11-01T13:26:45.261Z,98332.72
2022-11-01T13:29:19.165Z,98339.28
2022-11-01T13:32:01.091Z,98327.38
2022-11-01T13:34:46.973Z,98325.50
2022-11-01T13:37:27.521Z,98336.88
2022-11-01T13:40:20.141Z,98333.16
2022-11-01T13:42:56.475Z,98332.31
2022-11-01T13:45:59.222Z,98328.75
2022-11-01T13:48:39.318Z,98332.66
2022-11-01T13:51:24.994Z,98338.25
2022-11-01T13:54:01.364Z,98341.34
2022-11-01T13:56:36.831Z,98340.41
2022-11-01T13:59:15.506Z,98349.34
2022-11-01T14:01:45.212Z,98340.09
2022-11-01T14:04:49.906Z,98344.88
2022-11-01T14:07:19.295Z,98343.66
2022-11-01T14:09:49.706Z,98343.22
2022-11-01T14:12:43.388Z,98342.94
2022-11-01T14:15:24.706Z,98339.13
2022-11-01T14:18:05.364Z,98348.09
2022-11-01T14:20:52.749Z,98339.56
2022-11-01T14:24:02.308Z,98341.38
2022-11-01T14:26:49.062Z,98338.00
2022-11-01T14:29:19.369Z,98342.91
2022-11-01T14:31:52.831Z,98348.09
2022-11-01T14:34:33.343Z,98343.69
2022-11-01T14:37:14.298Z,98350.78
2022-11-01T14:39:50.101Z,98348.25
2022-11-01T14:42:26.743Z,98348.09
2022-11-01T14:45:00.695Z,98344.75
2022-11-01T14:47:37.503Z,98350.84
2022-11-01T14:50:26.161Z,98355.16
2022-11-01T14:53:02.125Z,98357.09
2022-11-01T14:55:36.563Z,98358.63
2022-11-01T14:58:20.574Z,98350.22
2022-11-01T15:00:55.189Z,98357.22
2022-11-01T15:03:25.029Z,98363.34
2022-11-01T15:05:55.147Z,98352.25
2022-11-01T15:08:27.927Z,98349.56
2022-11-01T15:10:59.167Z,98348.69
2022-11-01T15:13:29.396Z,98348.72
2022-11-01T15:16:09.357Z,98356.88
2022-11-01T15:18:42.761Z,98363.75
2022-11-01T15:23:55.591Z,98360.34
2022-11-01T15:26:28.974Z,98362.50
2022-11-01T15:29:00.424Z,98361.53
2022-11-01T15:31:31.376Z,98380.78
2022-11-01T15:34:01.800Z,98368.56
2022-11-01T15:36:34.155Z,98376.34
2022-11-01T15:39:06.345Z,98381.03
2022-11-01T15:41:37.078Z,98381.53
2022-11-01T15:44:07.835Z,98373.66
2022-11-01T15:46:42.159Z,98384.25
2022-11-01T15:49:16.504Z,98389.94
2022-11-01T15:51:52.009Z,98388.63
2022-11-01T15:54:34.764Z,98382.47
2022-11-01T15:57:12.526Z,98388.69
2022-11-01T15:59:49.730Z,98398.59
2022-11-01T16:02:28.716Z,98399.75
2022-11-01T16:04:59.385Z,98401.78
2022-11-01T16:07:32.067Z,98392.69
2022-11-01T16:10:04.745Z,98402.31
2022-11-01T16:12:38.987Z,98404.28
2022-11-01T16:15:20.518Z,98404.81
2022-11-01T16:17:55.749Z,98406.50
2022-11-01T16:20:31.577Z,98420.88
2022-11-01T16:23:02.950Z,98425.31
2022-11-01T16:25:33.561Z,98423.69
2022-11-01T16:28:08.586Z,98424.69
2022-11-01T16:30:45.620Z,98427.50
2022-11-01T16:33:24.295Z,98430.34
2022-11-01T16:35:56.570Z,98424.81
2022-11-01T16:38:30.851Z,98435.38
2022-11-01T16:41:01.961Z,98441.72
2022-11-01T16:43:33.642Z,98441.88
2022-11-01T16:46:03.740Z,98443.97
2022-11-01T16:48:36.518Z,98432.91
2022-11-01T16:51:06.667Z,98451.63
2022-11-01T16:53:35.362Z,98457.00
2022-11-01T16:56:34.944Z,98458.03
2022-11-01T16:59:00.063Z,98458.31
2022-11-01T17:01:35.374Z,98450.16
2022-11-01T17:04:06.641Z,98469.75
2022-11-01T17:06:38.956Z,98468.16
2022-11-01T17:09:13.559Z,98467.25
2022-11-01T17:11:46.399Z,98475.75
2022-11-01T17:14:19.758Z,98477.47
2022-11-01T17:16:50.240Z,98480.00
2022-11-01T17:19:26.248Z,98487.81
2022-11-01T17:21:55.734Z,98487.81
2022-11-01T17:24:27.477Z,98486.06
2022-11-01T17:27:00.965Z,98498.78
2022-11-01T17:29:30.604Z,98481.28
2022-11-01T17:31:59.496Z,98483.78
2022-11-01T17:34:31.295Z,98488.28
2022-11-01T17:37:02.919Z,98488.56
2022-11-01T17:39:32.248Z,98488.06
2022-11-01T17:42:02.728Z,98490.66
2022-11-01T17:44:32.170Z,98502.88
2022-11-01T17:47:01.464Z,98497.88
2022-11-01T17:49:31.588Z,98495.50
2022-11-01T17:52:01.184Z,98494.56
2022-11-01T17:54:29.672Z,98499.91
2022-11-01T17:56:58.079Z,98508.69
2022-11-01T17:59:26.777Z,98511.22
2022-11-01T18:01:55.964Z,98520.47
2022-11-01T18:04:24.759Z,98519.50
2022-11-01T18:06:54.847Z,98520.47
2022-11-01T18:09:25.439Z,98512.81
2022-11-01T18:12:01.002Z,98518.94
2022-11-01T18:14:48.918Z,98513.78
2022-11-01T18:17:41.441Z,98518.75
2022-11-01T18:20:22.776Z,98522.91
2022-11-01T18:22:58.561Z,98514.28
2022-11-01T18:25:33.640Z,98526.16
2022-11-01T18:28:08.174Z,98517.53
2022-11-01T18:30:38.156Z,98518.31
2022-11-01T18:33:11.862Z,98522.78
2022-11-01T18:35:46.241Z,98523.75
2022-11-01T18:38:26.389Z,98512.97
2022-11-01T18:41:00.567Z,98520.63
2022-11-01T18:43:32.081Z,98516.38
2022-11-01T18:48:51.077Z,98519.03
2022-11-01T18:51:26.584Z,98520.25
2022-11-01T18:54:00.390Z,98523.94
2022-11-01T18:56:29.689Z,98516.44
2022-11-01T18:58:59.030Z,98521.91
2022-11-01T19:01:32.432Z,98518.69
2022-11-01T19:04:04.084Z,98522.38
2022-11-01T19:06:34.178Z,98528.44
2022-11-01T19:09:24.321Z,98519.94
2022-11-01T19:11:59.227Z,98526.91
2022-11-01T19:14:29.332Z,98520.22
2022-11-01T19:17:00.092Z,98526.28
2022-11-01T19:19:29.002Z,98525.38
2022-11-01T19:22:01.634Z,98522.66
2022-11-01T19:24:39.228Z,98520.03
2022-11-01T19:27:16.954Z,98524.28
2022-11-01T19:29:45.759Z,98521.81
2022-11-01T19:32:17.261Z,98519.38
2022-11-01T19:34:46.590Z,98524.41
2022-11-01T19:37:23.420Z,98526.13
2022-11-01T19:39:55.307Z,98508.16
2022-11-01T19:42:29.619Z,98525.13
2022-11-01T19:45:00.462Z,98517.44
2022-11-01T19:47:39.478Z,98522.72
2022-11-01T19:50:22.247Z,98527.94
2022-11-01T19:52:52.741Z,98522.94
2022-11-01T19:55:40.644Z,98529.09
2022-11-01T19:58:26.445Z,98534.31
2022-11-01T20:01:23.472Z,98529.19
2022-11-01T20:03:57.588Z,98536.84
2022-11-01T20:06:30.281Z,98534.97
2022-11-01T20:09:03.302Z,98527.13
2022-11-01T20:11:34.626Z,98529.56
2022-11-01T20:14:03.388Z,98536.44
2022-11-01T20:16:31.978Z,98534.72
2022-11-01T20:19:00.596Z,98538.97
2022-11-01T20:21:29.618Z,98548.38
2022-11-01T20:23:58.882Z,98546.56
2022-11-01T20:26:27.670Z,98545.03
2022-11-01T20:28:57.722Z,98549.41
2022-11-01T20:31:27.223Z,98556.34
2022-11-01T20:33:55.965Z,98555.78
2022-11-01T20:36:24.289Z,98554.25
2022-11-01T20:38:53.068Z,98558.09
2022-11-01T20:41:22.430Z,98574.25
2022-11-01T20:43:51.114Z,98575.00
2022-11-01T20:46:21.661Z,98574.22
2022-11-01T20:48:53.068Z,98578.63
2022-11-01T20:51:22.749Z,98570.13
2022-11-01T20:53:51.093Z,98572.84
2022-11-01T20:56:19.842Z,98577.13
2022-11-01T20:58:48.905Z,98587.50
2022-11-01T21:01:19.300Z,98581.63
2022-11-01T21:03:49.625Z,98577.31
2022-11-01T21:06:19.857Z,98573.97
2022-11-01T21:08:49.359Z,98567.13
2022-11-01T21:11:24.173Z,98562.91
2022-11-01T21:13:53.081Z,98571.69
2022-11-01T21:16:28.208Z,98578.63
2022-11-01T21:19:02.312Z,98565.81
2022-11-01T21:21:35.229Z,98579.59
2022-11-01T21:24:31.269Z,98574.78
2022-11-01T21:27:14.439Z,98569.03
2022-11-01T21:29:45.467Z,98576.81
2022-11-01T21:32:30.904Z,98571.88
2022-11-01T21:35:00.625Z,98564.97
2022-11-01T21:37:31.591Z,98569.78
2022-11-01T21:40:06.741Z,98575.94
2022-11-01T21:42:39.648Z,98581.25
2022-11-01T21:45:31.564Z,98558.25
2022-11-01T21:48:03.086Z,98579.63
2022-11-01T21:50:33.748Z,98578.97
2022-11-01T21:53:04.331Z,98581.66
2022-11-01T21:55:32.846Z,98582.44
2022-11-01T21:58:01.611Z,98578.22
2022-11-01T22:00:31.532Z,98578.38
2022-11-01T22:03:00.748Z,98581.00
2022-11-01T22:05:29.591Z,98580.97
2022-11-01T22:07:59.270Z,98583.50
2022-11-01T22:10:27.713Z,98576.66
2022-11-01T22:12:56.264Z,98577.47
2022-11-01T22:15:24.676Z,98585.94
2022-11-01T22:17:53.184Z,98579.91
2022-11-01T22:20:21.461Z,98578.88
2022-11-01T22:22:49.916Z,98571.91
2022-11-01T22:25:19.959Z,98572.69
2022-11-01T22:27:48.646Z,98565.78
2022-11-01T22:30:17.708Z,98580.22
2022-11-01T22:32:46.308Z,98583.63
2022-11-01T22:35:14.773Z,98568.25
2022-11-01T22:37:43.460Z,98574.22
2022-11-01T22:40:14.056Z,98574.34
2022-11-01T22:42:44.026Z,98563.31
2022-11-01T22:45:18.218Z,98563.44
2022-11-01T22:47:47.520Z,98550.78
2022-11-01T22:50:27.511Z,98567.94
2022-11-01T22:52:55.859Z,98562.16
2022-11-01T22:55:28.021Z,98565.66
2022-11-01T22:58:02.610Z,98563.31
2022-11-01T23:00:33.790Z,98558.25
2022-11-01T23:03:12.172Z,98560.84
2022-11-01T23:05:40.444Z,98570.31
2022-11-01T23:08:18.242Z,98572.13
2022-11-01T23:10:49.696Z,98575.56
2022-11-01T23:13:43.549Z,98570.44
2022-11-01T23:16:22.244Z,98572.13
2022-11-01T23:18:51.650Z,98572.19
2022-11-01T23:21:22.613Z,98578.31
2022-11-01T23:23:52.217Z,98593.72
2022-11-01T23:26:21.486Z,98585.28
2022-11-01T23:28:53.664Z,98598.06
2022-11-01T23:31:24.097Z,98600.63
2022-11-01T23:33:53.200Z,98586.25
2022-11-01T23:36:27.111Z,98605.06
2022-11-01T23:41:32.221Z,98603.44
2022-11-01T23:44:07.664Z,98603.41
2022-11-01T23:46:36.291Z,98614.50
2022-11-01T23:49:15.168Z,98615.34
2022-11-01T23:51:44.753Z,98608.44
2022-11-01T23:54:18.700Z,98612.72
2022-11-01T23:56:47.249Z,98611.91
2022-11-01T23:59:17.703Z,98612.69
